sensor_id;sensor_type;location;lat;lon;timestamp;P1;durP1;ratioP1;P2;durP2;ratioP2
59649;SDS011;46162;57.568;25.814;2024-01-07T00:02:08;14.98;;;3.55;;
59649;SDS011;46162;57.568;25.814;2024-01-07T00:04:36;10.32;;;3.85;;
59649;SDS011;46162;57.568;25.814;2024-01-07T00:07:05;13.73;;;4.13;;
59649;SDS011;46162;57.568;25.814;2024-01-07T00:09:34;12.38;;;4.13;;
59649;SDS011;46162;57.568;25.814;2024-01-07T00:12:05;10.60;;;3.35;;
59649;SDS011;46162;57.568;25.814;2024-01-07T00:14:35;13.30;;;3.97;;
59649;SDS011;46162;57.568;25.814;2024-01-07T00:17:04;11.38;;;3.63;;
59649;SDS011;46162;57.568;25.814;2024-01-07T00:19:32;13.48;;;3.60;;
59649;SDS011;46162;57.568;25.814;2024-01-07T00:24:31;8.48;;;2.50;;
59649;SDS011;46162;57.568;25.814;2024-01-07T00:26:59;11.07;;;3.45;;
59649;SDS011;46162;57.568;25.814;2024-01-07T00:29:30;11.25;;;3.72;;
59649;SDS011;46162;57.568;25.814;2024-01-07T00:32:01;10.65;;;3.65;;
59649;SDS011;46162;57.568;25.814;2024-01-07T00:34:31;13.88;;;3.88;;
59649;SDS011;46162;57.568;25.814;2024-01-07T00:37:00;9.07;;;3.50;;
59649;SDS011;46162;57.568;25.814;2024-01-07T00:39:29;12.48;;;3.72;;
59649;SDS011;46162;57.568;25.814;2024-01-07T00:41:57;15.07;;;4.75;;
59649;SDS011;46162;57.568;25.814;2024-01-07T00:44:26;16.48;;;4.80;;
59649;SDS011;46162;57.568;25.814;2024-01-07T00:46:56;13.77;;;4.90;;
59649;SDS011;46162;57.568;25.814;2024-01-07T00:49:25;14.23;;;5.50;;
59649;SDS011;46162;57.568;25.814;2024-01-07T00:51:55;13.20;;;4.43;;
59649;SDS011;46162;57.568;25.814;2024-01-07T00:54:23;12.50;;;4.00;;
59649;SDS011;46162;57.568;25.814;2024-01-07T00:56:52;13.15;;;3.85;;
59649;SDS011;46162;57.568;25.814;2024-01-07T00:59:21;15.65;;;4.35;;
59649;SDS011;46162;57.568;25.814;2024-01-07T01:01:49;11.32;;;3.63;;
59649;SDS011;46162;57.568;25.814;2024-01-07T01:04:21;13.98;;;3.53;;
59649;SDS011;46162;57.568;25.814;2024-01-07T01:06:49;13.88;;;3.83;;
59649;SDS011;46162;57.568;25.814;2024-01-07T01:09:18;11.70;;;4.22;;
59649;SDS011;46162;57.568;25.814;2024-01-07T01:11:46;13.45;;;4.68;;
59649;SDS011;46162;57.568;25.814;2024-01-07T01:14:16;12.90;;;4.03;;
59649;SDS011;46162;57.568;25.814;2024-01-07T01:16:45;10.38;;;3.50;;
59649;SDS011;46162;57.568;25.814;2024-01-07T01:19:14;11.27;;;2.95;;
59649;SDS011;46162;57.568;25.814;2024-01-07T01:21:44;9.68;;;2.92;;
59649;SDS011;46162;57.568;25.814;2024-01-07T01:24:13;13.20;;;3.58;;
59649;SDS011;46162;57.568;25.814;2024-01-07T01:26:41;11.52;;;3.78;;
59649;SDS011;46162;57.568;25.814;2024-01-07T01:29:10;12.85;;;3.38;;
59649;SDS011;46162;57.568;25.814;2024-01-07T01:31:38;12.95;;;3.80;;
59649;SDS011;46162;57.568;25.814;2024-01-07T01:34:07;9.57;;;3.10;;
59649;SDS011;46162;57.568;25.814;2024-01-07T01:36:36;12.90;;;3.38;;
59649;SDS011;46162;57.568;25.814;2024-01-07T01:39:06;12.15;;;3.50;;
59649;SDS011;46162;57.568;25.814;2024-01-07T01:41:35;12.27;;;3.63;;
59649;SDS011;46162;57.568;25.814;2024-01-07T01:44:03;10.23;;;3.35;;
59649;SDS011;46162;57.568;25.814;2024-01-07T01:46:32;11.45;;;3.60;;
59649;SDS011;46162;57.568;25.814;2024-01-07T01:49:01;13.77;;;4.32;;
59649;SDS011;46162;57.568;25.814;2024-01-07T01:51:30;12.35;;;3.55;;
59649;SDS011;46162;57.568;25.814;2024-01-07T01:53:59;14.02;;;3.28;;
59649;SDS011;46162;57.568;25.814;2024-01-07T01:56:30;15.07;;;3.80;;
59649;SDS011;46162;57.568;25.814;2024-01-07T01:59:01;13.35;;;3.63;;
59649;SDS011;46162;57.568;25.814;2024-01-07T02:01:30;11.32;;;3.42;;
59649;SDS011;46162;57.568;25.814;2024-01-07T02:03:59;14.10;;;3.70;;
59649;SDS011;46162;57.568;25.814;2024-01-07T02:06:28;12.20;;;4.18;;
59649;SDS011;46162;57.568;25.814;2024-01-07T02:08:57;16.55;;;4.28;;
59649;SDS011;46162;57.568;25.814;2024-01-07T02:11:26;14.38;;;3.60;;
59649;SDS011;46162;57.568;25.814;2024-01-07T02:13:56;13.23;;;3.47;;
59649;SDS011;46162;57.568;25.814;2024-01-07T02:16:24;12.55;;;3.72;;
59649;SDS011;46162;57.568;25.814;2024-01-07T02:18:53;12.00;;;3.72;;
59649;SDS011;46162;57.568;25.814;2024-01-07T02:21:23;13.27;;;4.03;;
59649;SDS011;46162;57.568;25.814;2024-01-07T02:23:51;11.23;;;3.45;;
59649;SDS011;46162;57.568;25.814;2024-01-07T02:26:21;13.23;;;3.55;;
59649;SDS011;46162;57.568;25.814;2024-01-07T02:31:19;15.43;;;4.00;;
59649;SDS011;46162;57.568;25.814;2024-01-07T02:33:47;13.13;;;3.75;;
59649;SDS011;46162;57.568;25.814;2024-01-07T02:36:16;14.13;;;4.65;;
59649;SDS011;46162;57.568;25.814;2024-01-07T02:38:45;11.45;;;3.47;;
59649;SDS011;46162;57.568;25.814;2024-01-07T02:41:13;15.02;;;4.78;;
59649;SDS011;46162;57.568;25.814;2024-01-07T02:43:43;11.38;;;3.08;;
59649;SDS011;46162;57.568;25.814;2024-01-07T02:46:13;10.27;;;3.20;;
59649;SDS011;46162;57.568;25.814;2024-01-07T02:51:11;10.57;;;3.33;;
59649;SDS011;46162;57.568;25.814;2024-01-07T02:53:40;19.42;;;5.45;;
59649;SDS011;46162;57.568;25.814;2024-01-07T02:56:09;16.65;;;4.85;;
59649;SDS011;46162;57.568;25.814;2024-01-07T02:58:37;13.90;;;4.07;;
59649;SDS011;46162;57.568;25.814;2024-01-07T03:01:09;17.90;;;4.95;;
59649;SDS011;46162;57.568;25.814;2024-01-07T03:03:38;15.70;;;3.50;;
59649;SDS011;46162;57.568;25.814;2024-01-07T03:06:07;17.40;;;5.25;;
59649;SDS011;46162;57.568;25.814;2024-01-07T03:08:35;11.98;;;4.30;;
59649;SDS011;46162;57.568;25.814;2024-01-07T03:11:04;20.08;;;4.57;;
59649;SDS011;46162;57.568;25.814;2024-01-07T03:13:33;13.95;;;4.68;;
59649;SDS011;46162;57.568;25.814;2024-01-07T03:16:02;14.77;;;3.83;;
59649;SDS011;46162;57.568;25.814;2024-01-07T03:18:33;19.80;;;5.05;;
59649;SDS011;46162;57.568;25.814;2024-01-07T03:21:02;14.00;;;3.88;;
59649;SDS011;46162;57.568;25.814;2024-01-07T03:23:31;15.82;;;5.38;;
59649;SDS011;46162;57.568;25.814;2024-01-07T03:26:00;12.85;;;3.95;;
59649;SDS011;46162;57.568;25.814;2024-01-07T03:28:28;13.43;;;3.72;;
59649;SDS011;46162;57.568;25.814;2024-01-07T03:30:57;11.75;;;3.30;;
59649;SDS011;46162;57.568;25.814;2024-01-07T03:33:26;13.25;;;3.38;;
59649;SDS011;46162;57.568;25.814;2024-01-07T03:35:56;9.25;;;2.30;;
59649;SDS011;46162;57.568;25.814;2024-01-07T03:38:25;10.35;;;2.97;;
59649;SDS011;46162;57.568;25.814;2024-01-07T03:40:53;12.27;;;3.45;;
59649;SDS011;46162;57.568;25.814;2024-01-07T03:43:22;6.53;;;2.97;;
59649;SDS011;46162;57.568;25.814;2024-01-07T03:45:50;15.80;;;3.80;;
59649;SDS011;46162;57.568;25.814;2024-01-07T03:48:19;13.93;;;2.50;;
59649;SDS011;46162;57.568;25.814;2024-01-07T03:50:48;11.90;;;3.42;;
59649;SDS011;46162;57.568;25.814;2024-01-07T03:53:18;12.07;;;3.20;;
59649;SDS011;46162;57.568;25.814;2024-01-07T03:55:46;9.40;;;2.63;;
59649;SDS011;46162;57.568;25.814;2024-01-07T03:58:15;11.43;;;3.22;;
59649;SDS011;46162;57.568;25.814;2024-01-07T04:00:44;5.75;;;2.13;;
59649;SDS011;46162;57.568;25.814;2024-01-07T04:03:15;14.43;;;3.25;;
59649;SDS011;46162;57.568;25.814;2024-01-07T04:05:47;11.50;;;3.17;;
59649;SDS011;46162;57.568;25.814;2024-01-07T04:08:20;11.80;;;3.22;;
59649;SDS011;46162;57.568;25.814;2024-01-07T04:10:52;13.05;;;3.60;;
59649;SDS011;46162;57.568;25.814;2024-01-07T04:13:31;13.27;;;4.05;;
59649;SDS011;46162;57.568;25.814;2024-01-07T04:16:02;14.18;;;4.35;;
59649;SDS011;46162;57.568;25.814;2024-01-07T04:18:37;16.40;;;4.88;;
59649;SDS011;46162;57.568;25.814;2024-01-07T04:21:16;16.88;;;4.90;;
59649;SDS011;46162;57.568;25.814;2024-01-07T04:23:49;17.55;;;5.57;;
59649;SDS011;46162;57.568;25.814;2024-01-07T04:26:28;17.70;;;4.90;;
59649;SDS011;46162;57.568;25.814;2024-01-07T04:29:05;20.88;;;5.70;;
59649;SDS011;46162;57.568;25.814;2024-01-07T04:31:42;17.80;;;4.63;;
59649;SDS011;46162;57.568;25.814;2024-01-07T04:34:19;14.30;;;4.43;;
59649;SDS011;46162;57.568;25.814;2024-01-07T04:36:52;15.38;;;4.38;;
59649;SDS011;46162;57.568;25.814;2024-01-07T04:39:26;13.23;;;5.25;;
59649;SDS011;46162;57.568;25.814;2024-01-07T04:41:56;16.80;;;4.45;;
59649;SDS011;46162;57.568;25.814;2024-01-07T04:44:39;15.93;;;4.78;;
59649;SDS011;46162;57.568;25.814;2024-01-07T04:47:29;12.55;;;4.72;;
59649;SDS011;46162;57.568;25.814;2024-01-07T04:50:11;14.07;;;5.13;;
59649;SDS011;46162;57.568;25.814;2024-01-07T04:52:52;20.10;;;6.88;;
59649;SDS011;46162;57.568;25.814;2024-01-07T04:55:34;16.85;;;5.70;;
59649;SDS011;46162;57.568;25.814;2024-01-07T04:58:08;15.07;;;5.68;;
59649;SDS011;46162;57.568;25.814;2024-01-07T05:00:47;19.40;;;6.05;;
59649;SDS011;46162;57.568;25.814;2024-01-07T05:03:23;18.30;;;5.53;;
59649;SDS011;46162;57.568;25.814;2024-01-07T05:05:57;20.85;;;6.32;;
59649;SDS011;46162;57.568;25.814;2024-01-07T05:08:29;17.00;;;6.20;;
59649;SDS011;46162;57.568;25.814;2024-01-07T05:11:05;15.60;;;4.90;;
59649;SDS011;46162;57.568;25.814;2024-01-07T05:13:42;16.23;;;4.93;;
59649;SDS011;46162;57.568;25.814;2024-01-07T05:16:19;12.20;;;3.95;;
59649;SDS011;46162;57.568;25.814;2024-01-07T05:18:57;15.85;;;5.00;;
59649;SDS011;46162;57.568;25.814;2024-01-07T05:21:30;12.02;;;3.80;;
59649;SDS011;46162;57.568;25.814;2024-01-07T05:24:08;13.38;;;4.72;;
59649;SDS011;46162;57.568;25.814;2024-01-07T05:26:43;14.63;;;4.73;;
59649;SDS011;46162;57.568;25.814;2024-01-07T05:29:12;15.50;;;4.65;;
59649;SDS011;46162;57.568;25.814;2024-01-07T05:31:44;14.68;;;5.00;;
59649;SDS011;46162;57.568;25.814;2024-01-07T05:34:19;14.85;;;4.70;;
59649;SDS011;46162;57.568;25.814;2024-01-07T05:36:56;16.77;;;5.25;;
59649;SDS011;46162;57.568;25.814;2024-01-07T05:39:27;15.07;;;4.82;;
59649;SDS011;46162;57.568;25.814;2024-01-07T05:42:07;15.70;;;5.10;;
59649;SDS011;46162;57.568;25.814;2024-01-07T05:44:43;18.15;;;5.63;;
59649;SDS011;46162;57.568;25.814;2024-01-07T05:47:18;19.80;;;6.60;;
59649;SDS011;46162;57.568;25.814;2024-01-07T05:49:50;15.57;;;5.00;;
59649;SDS011;46162;57.568;25.814;2024-01-07T05:52:28;16.88;;;5.22;;
59649;SDS011;46162;57.568;25.814;2024-01-07T05:55:03;21.75;;;5.57;;
59649;SDS011;46162;57.568;25.814;2024-01-07T05:57:42;15.23;;;6.00;;
59649;SDS011;46162;57.568;25.814;2024-01-07T06:00:19;19.45;;;6.78;;
59649;SDS011;46162;57.568;25.814;2024-01-07T06:02:53;16.75;;;5.32;;
59649;SDS011;46162;57.568;25.814;2024-01-07T06:05:31;18.13;;;5.65;;
59649;SDS011;46162;57.568;25.814;2024-01-07T06:08:00;17.43;;;6.47;;
59649;SDS011;46162;57.568;25.814;2024-01-07T06:10:33;20.38;;;6.63;;
59649;SDS011;46162;57.568;25.814;2024-01-07T06:13:08;20.38;;;6.60;;
59649;SDS011;46162;57.568;25.814;2024-01-07T06:15:40;17.38;;;6.22;;
59649;SDS011;46162;57.568;25.814;2024-01-07T06:18:16;17.08;;;6.88;;
59649;SDS011;46162;57.568;25.814;2024-01-07T06:20:50;19.27;;;6.85;;
59649;SDS011;46162;57.568;25.814;2024-01-07T06:23:32;20.20;;;6.07;;
59649;SDS011;46162;57.568;25.814;2024-01-07T06:26:05;17.05;;;5.70;;
59649;SDS011;46162;57.568;25.814;2024-01-07T06:28:43;18.67;;;7.22;;
59649;SDS011;46162;57.568;25.814;2024-01-07T06:31:19;17.48;;;5.88;;
59649;SDS011;46162;57.568;25.814;2024-01-07T06:33:54;16.52;;;6.68;;
59649;SDS011;46162;57.568;25.814;2024-01-07T06:36:24;22.60;;;5.72;;
59649;SDS011;46162;57.568;25.814;2024-01-07T06:39:01;17.63;;;5.82;;
59649;SDS011;46162;57.568;25.814;2024-01-07T06:41:35;16.73;;;6.20;;
59649;SDS011;46162;57.568;25.814;2024-01-07T06:44:15;21.02;;;6.10;;
59649;SDS011;46162;57.568;25.814;2024-01-07T06:46:51;19.13;;;6.40;;
59649;SDS011;46162;57.568;25.814;2024-01-07T06:49:26;19.65;;;7.15;;
59649;SDS011;46162;57.568;25.814;2024-01-07T06:52:04;18.13;;;6.07;;
59649;SDS011;46162;57.568;25.814;2024-01-07T06:54:38;20.13;;;6.38;;
59649;SDS011;46162;57.568;25.814;2024-01-07T06:57:12;19.52;;;6.40;;
59649;SDS011;46162;57.568;25.814;2024-01-07T06:59:50;16.02;;;6.00;;
59649;SDS011;46162;57.568;25.814;2024-01-07T07:02:22;19.08;;;6.07;;
59649;SDS011;46162;57.568;25.814;2024-01-07T07:05:03;17.55;;;6.18;;
59649;SDS011;46162;57.568;25.814;2024-01-07T07:07:38;17.95;;;5.55;;
59649;SDS011;46162;57.568;25.814;2024-01-07T07:10:15;18.35;;;6.18;;
59649;SDS011;46162;57.568;25.814;2024-01-07T07:12:49;19.67;;;6.95;;
59649;SDS011;46162;57.568;25.814;2024-01-07T07:15:26;21.67;;;6.60;;
59649;SDS011;46162;57.568;25.814;2024-01-07T07:18:01;18.67;;;6.25;;
59649;SDS011;46162;57.568;25.814;2024-01-07T07:20:39;18.17;;;6.45;;
59649;SDS011;46162;57.568;25.814;2024-01-07T07:23:16;22.00;;;6.93;;
59649;SDS011;46162;57.568;25.814;2024-01-07T07:26:00;19.40;;;6.43;;
59649;SDS011;46162;57.568;25.814;2024-01-07T07:28:32;22.88;;;6.80;;
59649;SDS011;46162;57.568;25.814;2024-01-07T07:31:12;20.02;;;5.60;;
59649;SDS011;46162;57.568;25.814;2024-01-07T07:33:51;17.10;;;5.85;;
59649;SDS011;46162;57.568;25.814;2024-01-07T07:36:32;19.48;;;6.47;;
59649;SDS011;46162;57.568;25.814;2024-01-07T07:39:09;14.52;;;4.22;;
59649;SDS011;46162;57.568;25.814;2024-01-07T07:41:48;15.55;;;5.57;;
59649;SDS011;46162;57.568;25.814;2024-01-07T07:44:20;18.35;;;5.03;;
59649;SDS011;46162;57.568;25.814;2024-01-07T07:46:55;18.05;;;4.72;;
59649;SDS011;46162;57.568;25.814;2024-01-07T07:49:32;17.42;;;4.78;;
59649;SDS011;46162;57.568;25.814;2024-01-07T07:52:06;11.00;;;3.40;;
59649;SDS011;46162;57.568;25.814;2024-01-07T07:54:41;18.23;;;4.28;;
59649;SDS011;46162;57.568;25.814;2024-01-07T07:57:21;15.75;;;5.10;;
59649;SDS011;46162;57.568;25.814;2024-01-07T07:59:54;15.05;;;3.90;;
59649;SDS011;46162;57.568;25.814;2024-01-07T08:05:06;17.95;;;5.82;;
59649;SDS011;46162;57.568;25.814;2024-01-07T08:07:42;16.55;;;4.57;;
59649;SDS011;46162;57.568;25.814;2024-01-07T08:10:38;11.68;;;3.58;;
59649;SDS011;46162;57.568;25.814;2024-01-07T08:13:08;12.82;;;4.00;;
59649;SDS011;46162;57.568;25.814;2024-01-07T08:15:45;12.90;;;4.47;;
59649;SDS011;46162;57.568;25.814;2024-01-07T08:18:36;12.55;;;4.43;;
59649;SDS011;46162;57.568;25.814;2024-01-07T08:21:20;15.02;;;4.10;;
59649;SDS011;46162;57.568;25.814;2024-01-07T08:23:55;10.25;;;4.60;;
59649;SDS011;46162;57.568;25.814;2024-01-07T08:26:24;15.02;;;4.45;;
59649;SDS011;46162;57.568;25.814;2024-01-07T08:28:59;18.35;;;5.47;;
59649;SDS011;46162;57.568;25.814;2024-01-07T08:31:31;18.83;;;6.03;;
59649;SDS011;46162;57.568;25.814;2024-01-07T08:34:07;19.02;;;6.60;;
59649;SDS011;46162;57.568;25.814;2024-01-07T08:36:42;14.75;;;5.47;;
59649;SDS011;46162;57.568;25.814;2024-01-07T08:39:14;18.63;;;6.05;;
59649;SDS011;46162;57.568;25.814;2024-01-07T08:41:57;14.32;;;4.65;;
59649;SDS011;46162;57.568;25.814;2024-01-07T08:44:34;16.17;;;5.70;;
59649;SDS011;46162;57.568;25.814;2024-01-07T08:47:13;20.60;;;6.43;;
59649;SDS011;46162;57.568;25.814;2024-01-07T08:49:50;65.97;;;19.45;;
59649;SDS011;46162;57.568;25.814;2024-01-07T08:52:30;55.45;;;13.73;;
59649;SDS011;46162;57.568;25.814;2024-01-07T08:55:07;25.27;;;8.90;;
59649;SDS011;46162;57.568;25.814;2024-01-07T08:57:37;26.90;;;10.98;;
59649;SDS011;46162;57.568;25.814;2024-01-07T09:00:13;29.20;;;10.50;;
59649;SDS011;46162;57.568;25.814;2024-01-07T09:02:46;25.40;;;8.88;;
59649;SDS011;46162;57.568;25.814;2024-01-07T09:05:33;27.10;;;9.13;;
59649;SDS011;46162;57.568;25.814;2024-01-07T09:08:07;28.35;;;10.23;;
59649;SDS011;46162;57.568;25.814;2024-01-07T09:10:40;24.95;;;9.43;;
59649;SDS011;46162;57.568;25.814;2024-01-07T09:13:17;26.10;;;9.18;;
59649;SDS011;46162;57.568;25.814;2024-01-07T09:15:52;23.45;;;8.02;;
59649;SDS011;46162;57.568;25.814;2024-01-07T09:18:25;20.15;;;7.15;;
59649;SDS011;46162;57.568;25.814;2024-01-07T09:21:01;20.25;;;7.75;;
59649;SDS011;46162;57.568;25.814;2024-01-07T09:23:33;17.13;;;6.28;;
59649;SDS011;46162;57.568;25.814;2024-01-07T09:26:07;17.33;;;6.68;;
59649;SDS011;46162;57.568;25.814;2024-01-07T09:28:42;20.27;;;6.53;;
59649;SDS011;46162;57.568;25.814;2024-01-07T09:31:14;12.63;;;6.80;;
59649;SDS011;46162;57.568;25.814;2024-01-07T09:33:51;21.73;;;6.60;;
59649;SDS011;46162;57.568;25.814;2024-01-07T09:36:27;13.93;;;5.35;;
59649;SDS011;46162;57.568;25.814;2024-01-07T09:38:57;14.73;;;6.18;;
59649;SDS011;46162;57.568;25.814;2024-01-07T09:41:26;16.83;;;6.10;;
59649;SDS011;46162;57.568;25.814;2024-01-07T09:43:58;16.02;;;6.25;;
59649;SDS011;46162;57.568;25.814;2024-01-07T09:49:01;13.18;;;4.22;;
59649;SDS011;46162;57.568;25.814;2024-01-07T09:51:35;13.30;;;5.15;;
59649;SDS011;46162;57.568;25.814;2024-01-07T09:54:09;8.32;;;3.75;;
59649;SDS011;46162;57.568;25.814;2024-01-07T09:56:50;14.25;;;4.45;;
59649;SDS011;46162;57.568;25.814;2024-01-07T09:59:23;14.10;;;4.57;;
59649;SDS011;46162;57.568;25.814;2024-01-07T10:01:56;15.15;;;4.47;;
59649;SDS011;46162;57.568;25.814;2024-01-07T10:04:36;16.35;;;5.30;;
59649;SDS011;46162;57.568;25.814;2024-01-07T10:07:06;14.20;;;5.20;;
59649;SDS011;46162;57.568;25.814;2024-01-07T10:09:40;10.50;;;4.13;;
59649;SDS011;46162;57.568;25.814;2024-01-07T10:12:13;15.98;;;4.85;;
59649;SDS011;46162;57.568;25.814;2024-01-07T10:14:48;14.90;;;4.35;;
59649;SDS011;46162;57.568;25.814;2024-01-07T10:17:26;13.20;;;4.30;;
59649;SDS011;46162;57.568;25.814;2024-01-07T10:20:00;8.68;;;3.40;;
59649;SDS011;46162;57.568;25.814;2024-01-07T10:22:37;16.98;;;4.63;;
59649;SDS011;46162;57.568;25.814;2024-01-07T10:25:14;11.85;;;4.28;;
59649;SDS011;46162;57.568;25.814;2024-01-07T10:27:43;10.00;;;3.57;;
59649;SDS011;46162;57.568;25.814;2024-01-07T10:30:22;11.20;;;4.93;;
59649;SDS011;46162;57.568;25.814;2024-01-07T10:32:57;13.65;;;4.20;;
59649;SDS011;46162;57.568;25.814;2024-01-07T10:38:10;15.82;;;5.88;;
59649;SDS011;46162;57.568;25.814;2024-01-07T10:40:42;16.70;;;4.28;;
59649;SDS011;46162;57.568;25.814;2024-01-07T10:43:17;11.52;;;4.00;;
59649;SDS011;46162;57.568;25.814;2024-01-07T10:45:50;17.20;;;4.38;;
59649;SDS011;46162;57.568;25.814;2024-01-07T10:48:26;12.18;;;4.47;;
59649;SDS011;46162;57.568;25.814;2024-01-07T10:51:06;11.15;;;4.75;;
59649;SDS011;46162;57.568;25.814;2024-01-07T10:53:46;8.35;;;2.85;;
59649;SDS011;46162;57.568;25.814;2024-01-07T10:56:29;13.27;;;2.63;;
59649;SDS011;46162;57.568;25.814;2024-01-07T10:59:14;11.73;;;3.92;;
59649;SDS011;46162;57.568;25.814;2024-01-07T11:01:52;21.60;;;4.18;;
59649;SDS011;46162;57.568;25.814;2024-01-07T11:04:32;16.70;;;4.35;;
59649;SDS011;46162;57.568;25.814;2024-01-07T11:07:19;10.18;;;3.40;;
59649;SDS011;46162;57.568;25.814;2024-01-07T11:10:04;11.02;;;4.00;;
59649;SDS011;46162;57.568;25.814;2024-01-07T11:12:50;11.35;;;3.75;;
59649;SDS011;46162;57.568;25.814;2024-01-07T11:18:24;13.20;;;3.85;;
59649;SDS011;46162;57.568;25.814;2024-01-07T11:21:01;9.73;;;3.13;;
59649;SDS011;46162;57.568;25.814;2024-01-07T11:23:33;13.32;;;4.28;;
59649;SDS011;46162;57.568;25.814;2024-01-07T11:26:21;9.52;;;2.70;;
59649;SDS011;46162;57.568;25.814;2024-01-07T11:28:58;9.65;;;3.13;;
59649;SDS011;46162;57.568;25.814;2024-01-07T11:31:44;13.07;;;3.75;;
59649;SDS011;46162;57.568;25.814;2024-01-07T11:37:17;13.02;;;3.60;;
59649;SDS011;46162;57.568;25.814;2024-01-07T11:39:47;9.90;;;2.95;;
59649;SDS011;46162;57.568;25.814;2024-01-07T11:42:24;10.50;;;3.85;;
59649;SDS011;46162;57.568;25.814;2024-01-07T11:44:54;13.68;;;4.32;;
59649;SDS011;46162;57.568;25.814;2024-01-07T11:47:30;11.60;;;3.42;;
59649;SDS011;46162;57.568;25.814;2024-01-07T11:49:59;10.88;;;3.08;;
59649;SDS011;46162;57.568;25.814;2024-01-07T11:52:32;10.15;;;4.03;;
59649;SDS011;46162;57.568;25.814;2024-01-07T11:55:06;10.45;;;3.03;;
59649;SDS011;46162;57.568;25.814;2024-01-07T11:57:37;12.18;;;3.92;;
59649;SDS011;46162;57.568;25.814;2024-01-07T12:00:11;9.45;;;3.00;;
59649;SDS011;46162;57.568;25.814;2024-01-07T12:02:41;9.77;;;4.03;;
59649;SDS011;46162;57.568;25.814;2024-01-07T12:05:10;10.43;;;4.00;;
59649;SDS011;46162;57.568;25.814;2024-01-07T12:07:45;6.15;;;2.65;;
59649;SDS011;46162;57.568;25.814;2024-01-07T12:10:14;8.43;;;2.17;;
59649;SDS011;46162;57.568;25.814;2024-01-07T12:15:15;11.77;;;3.28;;
59649;SDS011;46162;57.568;25.814;2024-01-07T12:17:57;8.13;;;2.70;;
59649;SDS011;46162;57.568;25.814;2024-01-07T12:20:33;12.02;;;3.92;;
59649;SDS011;46162;57.568;25.814;2024-01-07T12:23:06;15.60;;;5.00;;
59649;SDS011;46162;57.568;25.814;2024-01-07T12:25:35;22.23;;;7.10;;
59649;SDS011;46162;57.568;25.814;2024-01-07T12:28:08;16.58;;;5.50;;
59649;SDS011;46162;57.568;25.814;2024-01-07T12:30:38;41.22;;;11.95;;
59649;SDS011;46162;57.568;25.814;2024-01-07T12:33:20;54.83;;;13.77;;
59649;SDS011;46162;57.568;25.814;2024-01-07T12:35:59;32.35;;;9.65;;
59649;SDS011;46162;57.568;25.814;2024-01-07T12:38:36;102.85;;;26.55;;
59649;SDS011;46162;57.568;25.814;2024-01-07T12:41:08;102.63;;;25.75;;
59649;SDS011;46162;57.568;25.814;2024-01-07T12:43:40;40.22;;;10.52;;
59649;SDS011;46162;57.568;25.814;2024-01-07T12:46:12;12.88;;;5.05;;
59649;SDS011;46162;57.568;25.814;2024-01-07T12:48:41;20.17;;;6.43;;
59649;SDS011;46162;57.568;25.814;2024-01-07T12:51:10;8.82;;;2.88;;
59649;SDS011;46162;57.568;25.814;2024-01-07T12:53:43;12.93;;;3.50;;
59649;SDS011;46162;57.568;25.814;2024-01-07T12:56:20;11.15;;;3.42;;
59649;SDS011;46162;57.568;25.814;2024-01-07T12:58:54;12.70;;;3.83;;
59649;SDS011;46162;57.568;25.814;2024-01-07T13:01:23;15.02;;;2.95;;
59649;SDS011;46162;57.568;25.814;2024-01-07T13:03:56;9.00;;;2.83;;
59649;SDS011;46162;57.568;25.814;2024-01-07T13:06:29;7.82;;;2.88;;
59649;SDS011;46162;57.568;25.814;2024-01-07T13:09:00;14.70;;;3.33;;
59649;SDS011;46162;57.568;25.814;2024-01-07T13:11:32;12.52;;;3.55;;
59649;SDS011;46162;57.568;25.814;2024-01-07T13:14:06;13.02;;;3.38;;
59649;SDS011;46162;57.568;25.814;2024-01-07T13:16:35;9.13;;;3.63;;
59649;SDS011;46162;57.568;25.814;2024-01-07T13:19:11;8.57;;;3.03;;
59649;SDS011;46162;57.568;25.814;2024-01-07T13:21:45;12.13;;;3.65;;
59649;SDS011;46162;57.568;25.814;2024-01-07T13:24:15;11.05;;;3.50;;
59649;SDS011;46162;57.568;25.814;2024-01-07T13:26:48;6.97;;;2.47;;
59649;SDS011;46162;57.568;25.814;2024-01-07T13:29:19;10.10;;;3.80;;
59649;SDS011;46162;57.568;25.814;2024-01-07T13:31:51;9.70;;;3.17;;
59649;SDS011;46162;57.568;25.814;2024-01-07T13:34:27;7.15;;;3.03;;
59649;SDS011;46162;57.568;25.814;2024-01-07T13:37:00;12.32;;;3.28;;
59649;SDS011;46162;57.568;25.814;2024-01-07T13:39:30;11.82;;;3.45;;
59649;SDS011;46162;57.568;25.814;2024-01-07T13:42:06;8.68;;;2.45;;
59649;SDS011;46162;57.568;25.814;2024-01-07T13:44:39;8.07;;;2.33;;
59649;SDS011;46162;57.568;25.814;2024-01-07T13:47:16;9.50;;;3.03;;
59649;SDS011;46162;57.568;25.814;2024-01-07T13:49:44;7.95;;;3.05;;
59649;SDS011;46162;57.568;25.814;2024-01-07T13:52:14;13.43;;;3.03;;
59649;SDS011;46162;57.568;25.814;2024-01-07T13:54:43;10.75;;;2.17;;
59649;SDS011;46162;57.568;25.814;2024-01-07T13:57:11;9.18;;;2.83;;
59649;SDS011;46162;57.568;25.814;2024-01-07T13:59:42;8.23;;;2.15;;
59649;SDS011;46162;57.568;25.814;2024-01-07T14:02:10;9.32;;;2.47;;
59649;SDS011;46162;57.568;25.814;2024-01-07T14:04:40;7.93;;;2.13;;
59649;SDS011;46162;57.568;25.814;2024-01-07T14:07:08;10.75;;;2.97;;
59649;SDS011;46162;57.568;25.814;2024-01-07T14:09:37;9.68;;;2.80;;
59649;SDS011;46162;57.568;25.814;2024-01-07T14:12:06;8.30;;;2.90;;
59649;SDS011;46162;57.568;25.814;2024-01-07T14:14:35;10.38;;;2.45;;
59649;SDS011;46162;57.568;25.814;2024-01-07T14:17:05;5.78;;;2.33;;
59649;SDS011;46162;57.568;25.814;2024-01-07T14:19:34;7.70;;;2.60;;
59649;SDS011;46162;57.568;25.814;2024-01-07T14:22:03;7.97;;;2.40;;
59649;SDS011;46162;57.568;25.814;2024-01-07T14:24:32;11.40;;;2.88;;
59649;SDS011;46162;57.568;25.814;2024-01-07T14:27:00;11.23;;;2.65;;
59649;SDS011;46162;57.568;25.814;2024-01-07T14:29:29;6.25;;;2.13;;
59649;SDS011;46162;57.568;25.814;2024-01-07T14:31:58;9.00;;;2.03;;
59649;SDS011;46162;57.568;25.814;2024-01-07T14:34:30;7.13;;;2.53;;
59649;SDS011;46162;57.568;25.814;2024-01-07T14:39:28;6.82;;;2.58;;
59649;SDS011;46162;57.568;25.814;2024-01-07T14:41:57;7.00;;;1.88;;
59649;SDS011;46162;57.568;25.814;2024-01-07T14:44:26;9.85;;;2.83;;
59649;SDS011;46162;57.568;25.814;2024-01-07T14:47:10;6.75;;;1.90;;
59649;SDS011;46162;57.568;25.814;2024-01-07T14:49:41;5.32;;;1.67;;
59649;SDS011;46162;57.568;25.814;2024-01-07T14:52:10;7.63;;;1.63;;
59649;SDS011;46162;57.568;25.814;2024-01-07T14:54:39;6.13;;;1.80;;
59649;SDS011;46162;57.568;25.814;2024-01-07T14:57:07;8.25;;;2.53;;
59649;SDS011;46162;57.568;25.814;2024-01-07T14:59:36;6.57;;;1.73;;
59649;SDS011;46162;57.568;25.814;2024-01-07T15:02:05;8.98;;;2.10;;
59649;SDS011;46162;57.568;25.814;2024-01-07T15:04:37;7.25;;;2.03;;
59649;SDS011;46162;57.568;25.814;2024-01-07T15:07:08;8.85;;;2.72;;
59649;SDS011;46162;57.568;25.814;2024-01-07T15:09:38;10.82;;;2.70;;
59649;SDS011;46162;57.568;25.814;2024-01-07T15:12:08;7.63;;;2.60;;
59649;SDS011;46162;57.568;25.814;2024-01-07T15:14:37;8.13;;;2.45;;
59649;SDS011;46162;57.568;25.814;2024-01-07T15:17:05;12.18;;;3.45;;
59649;SDS011;46162;57.568;25.814;2024-01-07T15:19:34;6.13;;;2.13;;
59649;SDS011;46162;57.568;25.814;2024-01-07T15:22:03;7.43;;;1.88;;
59649;SDS011;46162;57.568;25.814;2024-01-07T15:24:33;5.13;;;1.38;;